Time;durP1;ratioP1;P1;durP2;ratioP2;P2;SDS_P1;SDS_P2;PMS_P1;PMS_P2;Temp;Humidity;BMP_temperature;BMP_pressure;BME280_temperature;BME280_humidity;BME280_pressure;Samples;Min_cycle;Max_cycle;Signal;HPM_P1;HPM_P2
2022/10/14 00:02:16;;;;;;;5.32;4.60;;;;;;;;;;5065842;28;20256;-71
2022/10/14 00:04:42;;;;;;;7.22;3.30;;;;;;;;;;5064485;28;20227;-71
2022/10/14 00:07:09;;;;;;;3.90;3.50;;;;;;;;;;5065530;28;20249;-71
2022/10/14 00:09:35;;;;;;;9.27;3.20;;;;;;;;;;5062798;28;20201;-71
2022/10/14 00:12:02;;;;;;;6.28;2.53;;;;;;;;;;5064140;28;20301;-72
2022/10/14 00:14:28;;;;;;;11.60;3.30;;;;;;;;;;5060387;28;20197;-71
2022/10/14 00:16:56;;;;;;;4.10;2.80;;;;;;;;;;5062612;28;20225;-72
2022/10/14 00:19:23;;;;;;;3.20;2.72;;;;;;;;;;5060047;28;20233;-71
2022/10/14 00:21:49;;;;;;;4.13;2.75;;;;;;;;;;5061658;28;20262;-72
2022/10/14 00:24:17;;;;;;;2.78;2.53;;;;;;;;;;5061652;28;20220;-73
2022/10/14 00:26:44;;;;;;;3.53;2.33;;;;;;;;;;5061107;28;20216;-72
2022/10/14 00:29:12;;;;;;;3.38;2.20;;;;;;;;;;5059217;28;20214;-72
2022/10/14 00:31:39;;;;;;;3.10;2.90;;;;;;;;;;5060671;28;20246;-71
2022/10/14 00:34:06;;;;;;;3.42;3.10;;;;;;;;;;5066025;28;20290;-73
2022/10/14 00:36:33;;;;;;;6.50;2.50;;;;;;;;;;5064501;28;20932;-72
2022/10/14 00:38:59;;;;;;;3.72;2.55;;;;;;;;;;5062234;28;20265;-72
2022/10/14 00:41:27;;;;;;;2.60;2.40;;;;;;;;;;5061597;28;20206;-71
2022/10/14 00:43:55;;;;;;;4.80;3.50;;;;;;;;;;5062201;28;20230;-72
2022/10/14 00:46:22;;;;;;;4.88;2.63;;;;;;;;;;5062869;28;20313;-72
2022/10/14 00:48:48;;;;;;;7.22;2.58;;;;;;;;;;5063564;28;20267;-72
2022/10/14 00:51:16;;;;;;;7.10;2.58;;;;;;;;;;5062552;28;20220;-72
2022/10/14 00:53:43;;;;;;;9.98;3.10;;;;;;;;;;5062331;28;21313;-72
2022/10/14 00:56:10;;;;;;;3.45;2.88;;;;;;;;;;5061848;28;20285;-71
2022/10/14 00:58:37;;;;;;;4.13;2.63;;;;;;;;;;5058032;28;20955;-71
2022/10/14 01:01:04;;;;;;;3.28;2.95;;;;;;;;;;5063987;28;20236;-72
2022/10/14 01:03:32;;;;;;;2.95;2.67;;;;;;;;;;5063124;28;20305;-72
2022/10/14 01:06:01;;;;;;;3.92;3.13;;;;;;;;;;5062143;28;20233;-72
2022/10/14 01:08:32;;;;;;;3.63;2.78;;;;;;;;;;5062840;28;20283;-71
2022/10/14 01:11:02;;;;;;;3.13;2.65;;;;;;;;;;5063783;28;20984;-71
2022/10/14 01:13:31;;;;;;;4.55;2.88;;;;;;;;;;5064644;28;20197;-72
2022/10/14 01:16:03;;;;;;;5.63;3.13;;;;;;;;;;5064852;28;20201;-71
2022/10/14 01:18:36;;;;;;;4.25;2.67;;;;;;;;;;5062055;28;20269;-71
2022/10/14 01:21:17;;;;;;;3.75;2.55;;;;;;;;;;5059978;28;20229;-71
2022/10/14 01:23:54;;;;;;;3.15;2.25;;;;;;;;;;5060671;28;20376;-71
2022/10/14 01:26:26;;;;;;;3.25;2.80;;;;;;;;;;5060450;28;20209;-70
2022/10/14 01:28:58;;;;;;;2.05;1.85;;;;;;;;;;5062768;28;20216;-71
2022/10/14 01:31:28;;;;;;;3.17;2.25;;;;;;;;;;5061622;28;20208;-71
2022/10/14 01:33:56;;;;;;;2.40;2.20;;;;;;;;;;5066944;28;20743;-71
2022/10/14 01:36:27;;;;;;;2.42;2.22;;;;;;;;;;5066262;28;20747;-71
2022/10/14 01:38:56;;;;;;;3.15;1.98;;;;;;;;;;5063983;28;20213;-71
2022/10/14 01:41:25;;;;;;;1.88;1.77;;;;;;;;;;5063942;28;20290;-70
2022/10/14 01:43:53;;;;;;;3.50;2.13;;;;;;;;;;5067170;28;20718;-71
2022/10/14 01:46:22;;;;;;;2.63;2.42;;;;;;;;;;5066984;28;20200;-71
2022/10/14 01:48:55;;;;;;;3.50;2.17;;;;;;;12.43;nan;95330.84;5066162;28;20201;-71
2022/10/14 01:51:23;;;;;;;2.25;2.10;;;;;;;;;;5067720;28;20698;-71
2022/10/14 01:53:53;;;;;;;4.50;2.63;;;;;;;;;;5067907;28;20204;-72
2022/10/14 01:56:20;;;;;;;2.75;2.15;;;;;;;;;;5065975;28;20262;-71
2022/10/14 01:58:47;;;;;;;4.78;2.40;;;;;;;;;;5067740;28;20212;-71
2022/10/14 02:01:13;;;;;;;3.22;2.30;;;;;;;;;;5064855;28;20209;-71
2022/10/14 02:03:41;;;;;;;2.90;2.53;;;;;;;;;;5066485;28;20275;-72
2022/10/14 02:06:11;;;;;;;3.72;1.95;;;;;;;;;;5066060;28;20262;-70
2022/10/14 02:08:43;;;;;;;6.47;2.65;;;;;;;;;;5066357;28;20234;-71
2022/10/14 02:11:11;;;;;;;3.38;1.75;;;;;;;;;;5063969;28;20235;-71
2022/10/14 02:13:43;;;;;;;1.20;1.20;;;;;;;;;;5065690;28;20208;-72
2022/10/14 02:16:13;;;;;;;2.72;1.45;;;;;;;;;;5065269;28;20631;-72
2022/10/14 02:18:41;;;;;;;3.00;1.40;;;;;;;;;;5066897;28;20228;-71
2022/10/14 02:21:10;;;;;;;1.85;1.60;;;;;;;;;;5064868;28;20201;-71
2022/10/14 02:23:40;;;;;;;3.17;1.33;;;;;;;;;;5065481;28;20742;-71
2022/10/14 02:26:08;;;;;;;1.20;1.20;;;;;;;;;;5065462;28;21974;-71
2022/10/14 02:28:34;;;;;;;3.03;1.45;;;;;;;;;;5067674;28;20201;-72
2022/10/14 02:31:03;;;;;;;3.58;1.27;;;;;;;;;;5067806;28;20257;-71
2022/10/14 02:33:32;;;;;;;1.67;1.48;;;;;;;;;;5068462;28;20247;-71
2022/10/14 02:35:59;;;;;;;3.35;1.60;;;;;;;;;;5064008;28;20259;-71
2022/10/14 02:38:25;;;;;;;2.92;1.52;;;;;;;;;;5064629;28;20278;-71
2022/10/14 02:40:53;;;;;;;1.25;1.13;;;;;;;;;;5069223;28;20209;-71
2022/10/14 02:43:20;;;;;;;3.67;1.77;;;;;;;;;;5068495;28;20231;-71
2022/10/14 02:45:46;;;;;;;3.50;1.70;;;;;;;;;;5068288;28;20354;-71
2022/10/14 02:48:13;;;;;;;1.67;1.40;;;;;;;;;;5064049;28;20274;-71
2022/10/14 02:50:40;;;;;;;1.42;1.20;;;;;;;;;;5062915;28;20825;-71
2022/10/14 02:53:07;;;;;;;2.38;1.50;;;;;;;;;;5065326;28;21633;-71
2022/10/14 02:55:33;;;;;;;2.67;1.42;;;;;;;;;;5066896;28;22059;-71
2022/10/14 02:58:01;;;;;;;6.03;2.00;;;;;;;;;;5066634;28;20202;-71
2022/10/14 03:00:28;;;;;;;1.77;1.67;;;;;;;;;;5065768;28;20246;-72
2022/10/14 03:02:54;;;;;;;2.63;2.25;;;;;;;;;;5066230;28;20645;-72
2022/10/14 03:05:21;;;;;;;7.30;3.10;;;;;;;;;;5065981;28;20265;-71
2022/10/14 03:07:47;;;;;;;7.78;2.90;;;;;;;;;;5066668;28;20229;-71
2022/10/14 03:10:14;;;;;;;7.20;3.05;;;;;;;;;;5064546;28;20208;-71
2022/10/14 03:12:40;;;;;;;3.42;3.00;;;;;;;;;;5064834;28;20220;-71
2022/10/14 03:15:09;;;;;;;2.50;1.92;;;;;;;;;;5067267;28;20608;-71
2022/10/14 03:17:36;;;;;;;2.15;1.77;;;;;;;;;;5064380;28;20233;-73
2022/10/14 03:20:02;;;;;;;2.42;1.65;;;;;;;;;;5065326;28;20205;-73
2022/10/14 03:22:29;;;;;;;2.35;2.15;;;;;;;;;;5063587;28;20206;-74
2022/10/14 03:24:55;;;;;;;1.95;1.42;;;;;;;;;;5067036;28;20314;-72
2022/10/14 03:27:22;;;;;;;5.68;1.40;;;;;;;;;;5063933;28;20258;-71
2022/10/14 03:29:48;;;;;;;1.83;1.48;;;;;;;;;;5067282;28;20566;-72
2022/10/14 03:32:16;;;;;;;4.18;1.40;;;;;;;;;;5065291;28;20201;-72
2022/10/14 03:34:43;;;;;;;3.45;1.60;;;;;;;;;;5065691;28;22116;-72
2022/10/14 03:37:09;;;;;;;3.53;1.63;;;;;;;;;;5057093;28;20205;-72
2022/10/14 03:39:36;;;;;;;2.40;1.90;;;;;;;;;;5059552;28;20208;-72
2022/10/14 03:42:03;;;;;;;3.90;1.77;;;;;;;;;;5067455;28;20265;-72
2022/10/14 03:44:29;;;;;;;2.22;1.55;;;;;;;;;;5063411;28;20320;-72
2022/10/14 03:46:56;;;;;;;3.30;1.85;;;;;;;;;;5061493;28;20210;-71
2022/10/14 03:49:24;;;;;;;1.77;1.65;;;;;;;;;;5058277;28;20209;-71
2022/10/14 03:51:50;;;;;;;2.63;1.88;;;;;;;;;;5064836;28;20264;-72
2022/10/14 03:54:17;;;;;;;4.10;2.13;;;;;;;;;;5063109;28;20232;-72
2022/10/14 03:56:43;;;;;;;2.03;1.83;;;;;;;;;;5065129;28;20291;-71
2022/10/14 03:59:10;;;;;;;1.88;1.48;;;;;;;;;;5061173;28;20209;-72
2022/10/14 04:01:36;;;;;;;4.10;1.83;;;;;;;;;;5060498;28;20204;-72
2022/10/14 04:04:03;;;;;;;3.58;1.58;;;;;;;;;;5065136;28;20277;-72
2022/10/14 04:06:31;;;;;;;2.08;1.83;;;;;;;;;;5065579;28;20299;-71
2022/10/14 04:08:57;;;;;;;3.10;1.60;;;;;;;;;;5061873;28;20205;-71
2022/10/14 04:11:24;;;;;;;2.58;1.35;;;;;;;;;;5062677;28;20209;-72
2022/10/14 04:13:51;;;;;;;1.88;1.67;;;;;;;;;;5063798;28;20282;-72
2022/10/14 04:16:17;;;;;;;2.55;1.40;;;;;;;;;;5062154;28;20206;-71
2022/10/14 04:18:44;;;;;;;1.73;1.63;;;;;;;;;;5064194;28;20305;-72
2022/10/14 04:21:11;;;;;;;2.63;1.73;;;;;;;;;;5064586;28;20273;-71
2022/10/14 04:23:39;;;;;;;4.05;1.70;;;;;;;;;;5062277;28;20252;-73
2022/10/14 04:26:06;;;;;;;3.28;1.77;;;;;;;;;;5063621;28;20279;-72
2022/10/14 04:28:33;;;;;;;5.35;2.20;;;;;;;;;;5062832;28;20832;-73
2022/10/14 04:31:00;;;;;;;3.33;2.08;;;;;;;;;;5063778;28;20206;-72
2022/10/14 04:33:26;;;;;;;2.45;2.00;;;;;;;;;;5061363;28;20201;-72
2022/10/14 04:35:56;;;;;;;2.38;2.13;;;;;;;;;;5061612;28;20306;-72
2022/10/14 04:38:23;;;;;;;2.90;1.77;;;;;;;;;;5062765;28;20205;-71
2022/10/14 04:40:51;;;;;;;7.80;1.92;;;;;;;;;;5061210;28;20206;-72
2022/10/14 04:43:17;;;;;;;3.10;1.90;;;;;;;;;;5058474;28;20229;-72
2022/10/14 04:45:44;;;;;;;2.72;2.03;;;;;;;;;;5060771;28;20208;-72
2022/10/14 04:48:10;;;;;;;2.58;2.20;;;;;;;;;;5061941;28;20244;-72
2022/10/14 04:50:37;;;;;;;2.58;2.33;;;;;;;;;;5062741;28;20208;-72
2022/10/14 04:53:03;;;;;;;3.70;2.33;;;;;;;;;;5059898;28;20241;-72
2022/10/14 04:55:30;;;;;;;4.78;2.20;;;;;;;;;;5065183;28;20286;-72
2022/10/14 04:57:58;;;;;;;2.58;2.25;;;;;;;;;;5062009;28;20206;-72
2022/10/14 05:00:24;;;;;;;2.53;2.22;;;;;;;;;;5059780;28;20206;-73
2022/10/14 05:02:51;;;;;;;2.83;2.63;;;;;;;;;;5058004;28;20208;-71
2022/10/14 05:05:17;;;;;;;8.82;2.95;;;;;;;;;;5061807;28;20229;-72
2022/10/14 05:07:44;;;;;;;3.08;2.30;;;;;;;;;;5060353;28;20695;-72
2022/10/14 05:10:10;;;;;;;5.25;2.50;;;;;;;;;;5060623;28;20441;-73
2022/10/14 05:12:37;;;;;;;3.17;2.47;;;;;;;;;;5062527;28;21718;-73
2022/10/14 05:15:06;;;;;;;3.78;2.60;;;;;;;;;;5059507;28;20274;-72
2022/10/14 05:17:32;;;;;;;4.22;2.75;;;;;;;;;;5062589;28;20193;-72
2022/10/14 05:19:59;;;;;;;4.10;2.50;;;;;;;;;;5058099;28;20572;-72
2022/10/14 05:22:25;;;;;;;5.72;2.85;;;;;;;;;;5055044;28;20201;-71
2022/10/14 05:24:52;;;;;;;2.45;2.20;;;;;;;;;;5057187;28;20213;-73
2022/10/14 05:27:18;;;;;;;2.72;2.33;;;;;;;;;;5056372;28;21101;-71
2022/10/14 05:29:45;;;;;;;2.35;2.15;;;;;;;;;;5057913;28;20281;-72
2022/10/14 05:32:13;;;;;;;5.30;2.88;;;;;;;;;;5061699;28;22531;-71
2022/10/14 05:34:39;;;;;;;4.68;2.70;;;;;;;;;;5061678;28;20205;-72
2022/10/14 05:37:06;;;;;;;4.82;2.20;;;;;;;;;;5059578;28;20201;-74
2022/10/14 05:39:32;;;;;;;3.05;2.67;;;;;;;;;;5055937;28;20209;-72
2022/10/14 05:41:59;;;;;;;3.50;2.53;;;;;;;;;;5055522;28;20204;-72
2022/10/14 05:44:25;;;;;;;5.20;2.58;;;;;;;;;;5053428;28;20239;-72
2022/10/14 05:46:52;;;;;;;5.88;2.40;;;;;;;;;;5056581;28;20205;-73
2022/10/14 05:49:20;;;;;;;5.28;2.60;;;;;;;;;;5058051;28;20691;-72
2022/10/14 05:51:47;;;;;;;3.92;3.25;;;;;;;;;;5056978;28;20740;-72
2022/10/14 05:54:13;;;;;;;4.32;2.70;;;;;;;;;;5053639;28;21023;-73
2022/10/14 05:56:40;;;;;;;4.28;2.85;;;;;;;;;;5053462;28;20600;-71
2022/10/14 05:59:07;;;;;;;3.65;2.58;;;;;;;;;;5053335;28;20233;-72
2022/10/14 06:01:35;;;;;;;3.03;2.28;;;;;;;;;;5051397;28;20259;-72
2022/10/14 06:04:02;;;;;;;3.40;2.40;;;;;;;;;;5049643;28;20290;-71
2022/10/14 06:06:30;;;;;;;3.60;2.67;;;;;;;;;;5053486;28;20236;-72
2022/10/14 06:08:57;;;;;;;3.33;2.58;;;;;;;;;;5052297;28;20193;-72
2022/10/14 06:11:24;;;;;;;4.70;3.28;;;;;;;;;;5059867;28;20261;-72
2022/10/14 06:13:53;;;;;;;3.70;3.17;;;;;;;;;;5059146;28;20731;-73
2022/10/14 06:16:20;;;;;;;3.60;2.90;;;;;;;;;;5061614;28;20228;-72
2022/10/14 06:18:47;;;;;;;4.88;4.35;;;;;;;12.29;nan;95350.06;5062276;28;20867;-70
2022/10/14 06:21:14;;;;;;;3.55;2.88;;;;;;;;;;5060618;28;20197;-72
2022/10/14 06:23:43;;;;;;;5.40;2.80;;;;;;;;;;5058963;28;20202;-71
2022/10/14 06:26:10;;;;;;;3.70;3.42;;;;;;;;;;5059197;28;20237;-71
2022/10/14 06:28:38;;;;;;;3.40;2.85;;;;;;;;;;5066168;28;20201;-71
2022/10/14 06:31:06;;;;;;;7.50;2.85;;;;;;;;;;5061131;28;20292;-73
2022/10/14 06:33:35;;;;;;;3.45;3.25;;;;;;;;;;5059025;28;20295;-70
2022/10/14 06:36:03;;;;;;;3.83;3.05;;;;;;;;;;5058413;28;20233;-72
2022/10/14 06:38:31;;;;;;;3.80;3.50;;;;;;;;;;5061261;28;20203;-73
2022/10/14 06:40:59;;;;;;;5.43;3.42;;;;;;;;;;5061530;28;20213;-71
2022/10/14 06:43:26;;;;;;;2.83;2.63;;;;;;;;;;5058871;28;20212;-71
2022/10/14 06:45:57;;;;;;;3.92;2.90;;;;;;;;;;5062672;28;20221;-72
2022/10/14 06:48:23;;;;;;;6.38;3.72;;;;;;;;;;5063460;28;20280;-72
2022/10/14 06:50:51;;;;;;;3.70;3.38;;;;;;;;;;5061961;28;20632;-72
2022/10/14 06:53:18;;;;;;;6.45;3.58;;;;;;;;;;5061320;28;20218;-72
2022/10/14 06:55:47;;;;;;;3.58;3.28;;;;;;;12.72;nan;95344.22;5064700;28;20205;-73
2022/10/14 06:58:15;;;;;;;3.45;3.25;;;;;;;;;;5062619;28;20197;-73
2022/10/14 07:00:44;;;;;;;5.68;3.33;;;;;;;;;;5061659;28;20677;-73
2022/10/14 07:03:11;;;;;;;5.70;3.22;;;;;;;;;;5059640;28;20216;-71
2022/10/14 07:05:38;;;;;;;3.20;3.00;;;;;;;;;;5061414;28;20293;-72
2022/10/14 07:08:06;;;;;;;5.03;3.80;;;;;;;;;;5060959;28;20221;-71
2022/10/14 07:10:34;;;;;;;4.90;3.80;;;;;;;;;;5061067;28;20216;-72
2022/10/14 07:13:01;;;;;;;4.25;3.85;;;;;;;;;;5061054;28;20301;-73
2022/10/14 07:15:31;;;;;;;13.20;3.63;;;;;;;;;;5060913;28;20605;-72
2022/10/14 07:17:58;;;;;;;3.88;3.67;;;;;;;;;;5061062;28;20213;-72
2022/10/14 07:20:26;;;;;;;3.55;3.13;;;;;;;;;;5060674;28;20472;-71
2022/10/14 07:22:55;;;;;;;11.77;6.82;;;;;;;;;;5055746;28;21033;-70
2022/10/14 07:25:23;;;;;;;31.33;19.83;;;;;;;;;;5055231;28;20310;-71
2022/10/14 07:27:51;;;;;;;15.90;10.10;;;;;;;;;;5056977;28;20212;-71
2022/10/14 07:30:20;;;;;;;3.50;3.25;;;;;;;;;;5066561;28;20255;-72
2022/10/14 07:32:49;;;;;;;4.43;3.75;;;;;;;;;;5062924;28;20204;-72
2022/10/14 07:35:18;;;;;;;4.32;3.67;;;;;;;;;;5058829;28;20360;-71
2022/10/14 07:37:45;;;;;;;3.90;3.60;;;;;;;;;;5058285;28;20636;-71
2022/10/14 07:40:13;;;;;;;4.15;3.90;;;;;;;;;;5059286;28;20205;-73
2022/10/14 07:42:43;;;;;;;3.65;3.28;;;;;;;;;;5058312;28;20206;-71
2022/10/14 07:45:14;;;;;;;3.92;3.58;;;;;;;;;;5057885;28;20225;-72
2022/10/14 07:47:42;;;;;;;4.03;3.72;;;;;;;;;;5056748;28;20755;-72
2022/10/14 07:50:11;;;;;;;4.32;3.50;;;;;;;;;;5061577;28;20347;-71
2022/10/14 07:52:41;;;;;;;4.85;3.47;;;;;;;;;;5060136;28;20240;-72
2022/10/14 07:55:09;;;;;;;3.58;3.38;;;;;;;;;;5057841;28;20197;-72
2022/10/14 07:57:36;;;;;;;8.15;4.20;;;;;;;;;;5059125;28;20261;-72
2022/10/14 08:00:07;;;;;;;6.80;4.13;;;;;;;;;;5062846;28;21619;-72
2022/10/14 08:02:35;;;;;;;4.05;3.70;;;;;;;;;;5056624;28;20205;-71
2022/10/14 08:05:03;;;;;;;4.57;4.15;;;;;;;;;;5058831;28;20217;-72
2022/10/14 08:07:32;;;;;;;4.40;4.10;;;;;;;;;;5055041;28;20411;-71
2022/10/14 08:10:00;;;;;;;4.80;4.50;;;;;;;;;;5059325;28;20745;-73
2022/10/14 08:12:28;;;;;;;4.53;3.67;;;;;;;;;;5062141;28;20208;-73
2022/10/14 08:14:56;;;;;;;4.25;3.85;;;;;;;;;;5058791;28;20201;-71
2022/10/14 08:17:27;;;;;;;3.67;3.47;;;;;;;;;;5062919;28;20246;-71
2022/10/14 08:19:54;;;;;;;5.38;3.30;;;;;;;;;;5060362;28;20328;-71
2022/10/14 08:22:22;;;;;;;8.38;3.55;;;;;;;;;;5060898;28;20209;-72
2022/10/14 08:24:51;;;;;;;4.15;3.80;;;;;;;;;;5057380;28;20232;-73
2022/10/14 08:27:19;;;;;;;3.83;3.63;;;;;;;;;;5057498;28;20288;-72
2022/10/14 08:29:46;;;;;;;3.08;2.88;;;;;;;;;;5057464;28;20960;-72
2022/10/14 08:32:14;;;;;;;3.45;3.15;;;;;;;;;;5055060;28;20301;-71
2022/10/14 08:34:42;;;;;;;3.90;3.05;;;;;;;;;;5058416;28;20203;-72
2022/10/14 08:37:10;;;;;;;5.05;2.75;;;;;;;;;;5058154;28;20258;-72
2022/10/14 08:39:50;;;;;;;3.40;3.17;;;;;;;;;;5056598;28;20661;-72
2022/10/14 08:42:32;;;;;;;2.85;2.65;;;;;;;;;;5058754;28;20327;-72
2022/10/14 08:45:07;;;;;;;3.50;3.20;;;;;;;;;;5056185;28;20231;-72
2022/10/14 08:47:37;;;;;;;3.95;2.90;;;;;;;;;;5059086;28;20209;-71
2022/10/14 08:50:15;;;;;;;6.20;3.25;;;;;;;;;;5059025;28;20281;-73
2022/10/14 08:52:45;;;;;;;3.88;3.65;;;;;;;;;;5025287;28;20328;-70
2022/10/14 08:55:18;;;;;;;3.25;2.95;;;;;;;;;;5020999;28;20233;-75
2022/10/14 08:57:50;;;;;;;3.30;2.25;;;;;;;;;;5018650;28;20652;-71
2022/10/14 09:00:36;;;;;;;3.25;2.95;;;;;;;;;;5019595;28;20587;-71
2022/10/14 09:03:08;;;;;;;2.60;2.22;;;;;;;;;;5017572;28;20205;-73
2022/10/14 09:05:39;;;;;;;5.05;2.75;;;;;;;;;;5017436;28;20238;-72
2022/10/14 09:08:08;;;;;;;2.20;2.10;;;;;;;;;;5015933;28;20230;-73
2022/10/14 09:10:37;;;;;;;3.35;2.45;;;;;;;;;;5018044;28;20203;-72
2022/10/14 09:13:11;;;;;;;4.93;2.38;;;;;;;;;;5017769;28;20242;-72
2022/10/14 09:15:41;;;;;;;3.90;2.75;;;;;;;;;;5018002;28;20629;-72
2022/10/14 09:18:16;;;;;;;2.05;1.95;;;;;;;;;;5015539;28;20236;-73
2022/10/14 09:20:45;;;;;;;3.17;2.30;;;;;;;;;;5020110;28;20198;-71
2022/10/14 09:23:15;;;;;;;2.42;1.98;;;;;;;;;;5019922;28;20202;-72
2022/10/14 09:25:48;;;;;;;3.50;2.80;;;;;;;;;;5021667;28;20256;-71
2022/10/14 09:28:16;;;;;;;4.25;2.53;;;;;;;;;;5021448;28;20229;-72
2022/10/14 09:30:45;;;;;;;4.93;3.10;;;;;;;;;;5046249;28;20202;-72
2022/10/14 09:33:19;;;;;;;3.20;3.00;;;;;;;;;;5072636;28;20202;-73
2022/10/14 09:35:47;;;;;;;3.55;3.10;;;;;;;;;;5072578;28;20194;-73
2022/10/14 09:38:16;;;;;;;6.93;3.78;;;;;;;;;;5070081;28;20206;-72
2022/10/14 09:40:44;;;;;;;3.25;3.05;;;;;;;;;;5070360;28;20202;-74
2022/10/14 09:43:18;;;;;;;4.05;2.47;;;;;;;;;;5068589;28;20841;-73
2022/10/14 09:45:52;;;;;;;4.40;2.88;;;;;;;;;;5069748;28;20806;-73
2022/10/14 09:48:21;;;;;;;3.03;2.83;;;;;;;;;;5074530;28;20286;-74
2022/10/14 09:50:53;;;;;;;3.75;3.38;;;;;;;;;;5074542;28;20282;-73
2022/10/14 09:53:27;;;;;;;8.15;3.35;;;;;;;;;;5106291;28;20308;-75
2022/10/14 09:55:56;;;;;;;4.38;3.97;;;;;;;;;;5112799;28;20215;-75
2022/10/14 09:58:29;;;;;;;12.63;6.93;;;;;;;;;;5111892;28;20287;-74
2022/10/14 10:01:02;;;;;;;4.07;3.78;;;;;;;;;;5112092;28;20224;-74
2022/10/14 10:03:31;;;;;;;5.45;4.95;;;;;;;;;;5112130;28;20280;-73
2022/10/14 10:06:03;;;;;;;6.40;4.07;;;;;;;;;;5112679;28;20221;-75
2022/10/14 10:08:33;;;;;;;5.18;4.32;;;;;;;;;;5112617;28;20288;-74
2022/10/14 10:11:02;;;;;;;5.70;5.30;;;;;;;;;;5114338;28;20219;-72
2022/10/14 10:13:34;;;;;;;5.20;4.80;;;;;;;;;;5115467;28;20213;-74
2022/10/14 10:16:04;;;;;;;4.57;4.28;;;;;;;;;;5114994;28;20195;-73
2022/10/14 10:18:32;;;;;;;6.65;4.22;;;;;;;;;;5115681;28;20197;-73
2022/10/14 10:21:15;;;;;;;4.50;4.20;;;;;;;15.83;nan;95321.31;5115147;28;20689;-73
2022/10/14 10:23:54;;;;;;;4.82;4.47;;;;;;;;;;5115327;28;20684;-73
2022/10/14 10:26:25;;;;;;;4.20;3.90;;;;;;;;;;5114979;28;20224;-72
2022/10/14 10:28:53;;;;;;;3.55;3.25;;;;;;;;;;5115284;28;20216;-72
2022/10/14 10:31:27;;;;;;;3.45;3.25;;;;;;;;;;5114881;28;20197;-73
2022/10/14 10:33:58;;;;;;;7.88;6.60;;;;;;;;;;5114976;28;20197;-73
2022/10/14 10:36:49;;;;;;;5.03;4.32;;;;;;;;;;5115002;28;20670;-74
2022/10/14 10:39:23;;;;;;;5.43;3.45;;;;;;;;;;5115348;28;20326;-74
2022/10/14 10:41:57;;;;;;;3.50;3.20;;;;;;;;;;5115445;28;20193;-72
2022/10/14 10:44:46;;;;;;;5.43;2.92;;;;;;;;;;5115309;28;20193;-73
2022/10/14 10:47:33;;;;;;;3.72;3.42;;;;;;;;;;5114897;28;20316;-73
2022/10/14 10:50:09;;;;;;;2.78;2.53;;;;;;;;;;5107859;28;20251;-73
2022/10/14 10:52:43;;;;;;;2.38;2.20;;;;;;;;;;5114319;28;20258;-73
2022/10/14 10:55:16;;;;;;;2.35;2.25;;;;;;;;;;5114522;28;20200;-72
2022/10/14 10:57:46;;;;;;;2.65;2.45;;;;;;;;;;5114066;28;20284;-72
2022/10/14 11:00:15;;;;;;;2.50;2.15;;;;;;;;;;5114382;28;20219;-72
2022/10/14 11:03:00;;;;;;;8.02;2.22;;;;;;;;;;5113939;28;20216;-71
2022/10/14 11:05:37;;;;;;;2.00;1.77;;;;;;;;;;5114172;28;20228;-72
2022/10/14 11:13:57;;;;;;;2.65;1.35;;;;;;;;;;5071011;28;20368;-71
2022/10/14 11:16:28;;;;;;;7.38;3.10;;;;;;;;;;5071138;28;20231;-72
2022/10/14 11:19:01;;;;;;;4.95;1.88;;;;;;;;;;5091189;28;20265;-72
2022/10/14 11:21:37;;;;;;;19.88;2.28;;;;;;;;;;5114011;28;20204;-73
2022/10/14 11:24:06;;;;;;;7.00;1.92;;;;;;;;;;5114262;28;20253;-72
2022/10/14 11:26:55;;;;;;;1.77;1.67;;;;;;;;;;5113926;28;20236;-71
2022/10/14 11:29:39;;;;;;;1.65;1.55;;;;;;;;;;5114324;28;20224;-72
2022/10/14 11:32:08;;;;;;;2.97;1.70;;;;;;;;;;5114226;28;20205;-72
2022/10/14 11:34:41;;;;;;;1.60;1.50;;;;;;;;;;5115113;28;20248;-74
2022/10/14 11:37:15;;;;;;;2.45;1.90;;;;;;;;;;5114621;28;20255;-72
2022/10/14 11:39:44;;;;;;;1.40;1.30;;;;;;;;;;5114050;28;20235;-71
2022/10/14 11:42:19;;;;;;;1.05;1.05;;;;;;;;;;5113742;28;20261;-71
2022/10/14 11:44:46;;;;;;;1.80;1.60;;;;;;;;;;5114071;28;20224;-72
2022/10/14 11:47:13;;;;;;;4.13;1.75;;;;;;;;;;5113476;28;20225;-72
2022/10/14 11:49:44;;;;;;;1.20;1.20;;;;;;;;;;5113519;28;20277;-72
2022/10/14 11:52:14;;;;;;;1.30;1.20;;;;;;;;;;5114908;28;20232;-73
2022/10/14 11:54:43;;;;;;;2.35;1.30;;;;;;;;;;5113808;28;20258;-71
2022/10/14 11:57:12;;;;;;;1.17;1.17;;;;;;;;;;5113960;28;20204;-73
2022/10/14 11:59:46;;;;;;;2.58;1.20;;;;;;;;;;5113371;28;20205;-73
2022/10/14 12:02:29;;;;;;;2.53;1.40;;;;;;;;;;5113019;28;20201;-72
2022/10/14 12:04:58;;;;;;;1.15;1.00;;;;;;;;;;5117094;28;20306;-73
2022/10/14 12:07:29;;;;;;;2.03;1.20;;;;;;;;;;5114797;28;20229;-73
2022/10/14 12:09:58;;;;;;;1.73;1.25;;;;;;;;;;5113861;28;20266;-73
2022/10/14 12:12:26;;;;;;;1.85;1.23;;;;;;;;;;5113355;28;20197;-72
2022/10/14 12:14:55;;;;;;;2.88;1.48;;;;;;;;;;5114509;28;20197;-72
2022/10/14 12:17:24;;;;;;;1.50;1.40;;;;;;;;;;5113473;28;20189;-72
2022/10/14 12:19:51;;;;;;;3.85;1.65;;;;;;;;;;5113197;28;20189;-72
2022/10/14 12:22:19;;;;;;;1.92;1.45;;;;;;;;;;5112770;28;20285;-73
2022/10/14 12:24:49;;;;;;;1.13;1.10;;;;;;;;;;5112794;28;20258;-73
2022/10/14 12:27:18;;;;;;;2.28;1.48;;;;;;;;;;5112807;28;20225;-72
2022/10/14 12:29:45;;;;;;;1.83;1.40;;;;;;;;;;5112702;28;20201;-72
2022/10/14 12:32:23;;;;;;;2.38;1.52;;;;;;;15.78;nan;95226.72;5112594;28;20193;-72
2022/10/14 12:34:53;;;;;;;1.15;1.13;;;;;;;;;;5112799;28;20267;-73
2022/10/14 12:37:50;;;;;;;2.80;1.40;;;;;;;;;;5111920;28;20663;-73
2022/10/14 12:40:24;;;;;;;1.48;1.05;;;;;;;;;;5112167;28;20197;-73
2022/10/14 12:42:56;;;;;;;2.00;1.42;;;;;;;;;;5112275;28;20258;-73
2022/10/14 12:45:24;;;;;;;1.50;1.42;;;;;;;;;;5112109;28;20208;-71
2022/10/14 12:48:00;;;;;;;1.33;1.30;;;;;;;;;;5112214;28;20225;-74
2022/10/14 12:50:29;;;;;;;1.20;1.20;;;;;;;;;;5112077;28;20197;-72
2022/10/14 12:52:56;;;;;;;4.80;1.55;;;;;;;;;;5111918;28;20229;-72
2022/10/14 12:55:25;;;;;;;2.05;1.85;;;;;;;;;;5112147;28;20682;-72
2022/10/14 12:57:53;;;;;;;1.88;1.77;;;;;;;;;;5112695;28;20193;-73
2022/10/14 13:00:29;;;;;;;1.20;1.20;;;;;;;;;;5111578;28;20670;-74
2022/10/14 13:02:58;;;;;;;4.28;1.50;;;;;;;;;;5111603;28;20203;-73
2022/10/14 13:05:29;;;;;;;1.98;1.42;;;;;;;;;;5111902;28;20739;-73
2022/10/14 13:08:11;;;;;;;1.92;1.65;;;;;;;16.11;nan;95203.63;5111647;28;20311;-73
2022/10/14 13:10:43;;;;;;;1.60;1.50;;;;;;;;;;5111824;28;20189;-72
2022/10/14 13:13:28;;;;;;;1.60;1.50;;;;;;;;;;5111904;28;20229;-73
2022/10/14 13:15:54;;;;;;;2.65;1.63;;;;;;;;;;5111829;28;20261;-74
2022/10/14 13:18:38;;;;;;;3.47;2.03;;;;;;;;;;5111893;28;20200;-73
2022/10/14 13:21:06;;;;;;;1.83;1.73;;;;;;;;;;5097421;28;20261;-72
2022/10/14 13:23:39;;;;;;;3.08;1.27;;;;;;;;;;5111736;28;20193;-72
2022/10/14 13:26:16;;;;;;;6.30;1.60;;;;;;;;;;5111547;28;20336;-72
2022/10/14 13:28:46;;;;;;;1.58;1.17;;;;;;;;;;5111462;28;20197;-71
2022/10/14 13:31:16;;;;;;;1.30;1.30;;;;;;;;;;5111586;28;20201;-72
2022/10/14 13:33:46;;;;;;;1.50;1.40;;;;;;;;;;5111926;28;20197;-72
2022/10/14 13:36:16;;;;;;;1.35;1.23;;;;;;;;;;5111035;28;20248;-72
2022/10/14 13:38:44;;;;;;;2.35;1.05;;;;;;;;;;5111574;28;20197;-72
2022/10/14 13:41:14;;;;;;;1.45;1.35;;;;;;;;;;5111133;28;20254;-71
2022/10/14 13:43:42;;;;;;;1.65;1.55;;;;;;;;;;5111448;28;20743;-72
2022/10/14 13:46:13;;;;;;;1.55;1.45;;;;;;;;;;5111826;28;20208;-73
2022/10/14 13:48:43;;;;;;;1.52;0.90;;;;;;;;;;5091165;28;20702;-74
2022/10/14 13:51:34;;;;;;;3.33;1.40;;;;;;;;;;5091353;28;20262;-74
2022/10/14 13:54:09;;;;;;;4.57;1.42;;;;;;;;;;5091414;28;20193;-73
2022/10/14 13:56:36;;;;;;;1.65;1.42;;;;;;;;;;5090945;28;20219;-73
2022/10/14 13:59:17;;;;;;;1.65;1.50;;;;;;;;;;5090948;28;20251;-73
2022/10/14 14:01:44;;;;;;;1.30;1.20;;;;;;;;;;5090578;28;20242;-72
2022/10/14 14:04:16;;;;;;;3.20;1.50;;;;;;;;;;5091703;28;20193;-73
2022/10/14 14:06:43;;;;;;;1.92;1.58;;;;;;;;;;5090954;28;20290;-73
2022/10/14 14:09:20;;;;;;;3.58;1.23;;;;;;;15.78;nan;95215.66;5091300;28;20349;-73
2022/10/14 14:11:48;;;;;;;2.13;1.65;;;;;;;;;;5090724;28;20201;-72
2022/10/14 14:14:18;;;;;;;1.27;1.17;;;;;;;;;;5090831;28;20254;-72
2022/10/14 14:16:48;;;;;;;1.08;1.00;;;;;;;;;;5090804;28;20198;-72
2022/10/14 14:19:18;;;;;;;3.45;1.08;;;;;;;;;;5090892;28;20589;-73
2022/10/14 14:21:45;;;;;;;1.80;0.90;;;;;;;;;;5090824;28;20259;-73
2022/10/14 14:24:16;;;;;;;3.28;1.13;;;;;;;;;;5091175;28;20251;-73
2022/10/14 14:26:42;;;;;;;1.38;1.10;;;;;;;;;;5090789;28;20241;-73
2022/10/14 14:29:14;;;;;;;2.97;1.33;;;;;;;;;;5091095;28;20193;-73
2022/10/14 14:31:42;;;;;;;1.30;1.20;;;;;;;;;;5090794;28;20201;-72
2022/10/14 14:34:12;;;;;;;1.52;1.42;;;;;;;;;;5091652;28;20924;-71
2022/10/14 14:36:40;;;;;;;4.10;1.88;;;;;;;;;;5094361;28;20625;-72
2022/10/14 14:39:17;;;;;;;1.00;1.00;;;;;;;;;;5094501;28;20632;-73
2022/10/14 14:41:49;;;;;;;1.50;1.40;;;;;;;;;;5094357;28;20201;-72
2022/10/14 14:44:19;;;;;;;1.98;1.27;;;;;;;;;;5094930;28;20247;-73
2022/10/14 14:46:45;;;;;;;4.00;1.48;;;;;;;;;;5094345;28;20225;-72
2022/10/14 14:49:15;;;;;;;2.35;1.17;;;;;;;;;;5094859;28;20198;-72
2022/10/14 14:51:43;;;;;;;2.92;1.45;;;;;;;;;;5093370;28;20263;-72
2022/10/14 14:54:15;;;;;;;1.38;1.20;;;;;;;;;;5093759;28;20198;-73
2022/10/14 14:56:44;;;;;;;5.13;2.17;;;;;;;;;;5093786;28;20259;-71
2022/10/14 14:59:21;;;;;;;3.50;1.70;;;;;;;;;;5094163;28;20255;-72